sensor_id;sensor_type;location;lat;lon;timestamp;temperature;humidity
55771;DHT22;41687;-33.234;-60.334;2022-07-06T00:01:00;10.10;91.20
55771;DHT22;41687;-33.234;-60.334;2022-07-06T00:03:28;10.10;91.30
55771;DHT22;41687;-33.234;-60.334;2022-07-06T00:05:56;10.00;91.50
55771;DHT22;41687;-33.234;-60.334;2022-07-06T00:08:25;10.00;91.70
55771;DHT22;41687;-33.234;-60.334;2022-07-06T00:10:53;9.90;92.00
55771;DHT22;41687;-33.234;-60.334;2022-07-06T00:13:21;9.90;91.80
55771;DHT22;41687;-33.234;-60.334;2022-07-06T00:15:48;9.80;92.30
55771;DHT22;41687;-33.234;-60.334;2022-07-06T00:18:16;9.80;92.30
55771;DHT22;41687;-33.234;-60.334;2022-07-06T00:20:43;9.90;92.30
55771;DHT22;41687;-33.234;-60.334;2022-07-06T00:23:11;9.90;92.30
55771;DHT22;41687;-33.234;-60.334;2022-07-06T00:25:39;9.90;92.30
55771;DHT22;41687;-33.234;-60.334;2022-07-06T00:28:07;9.90;92.20
55771;DHT22;41687;-33.234;-60.334;2022-07-06T00:30:34;9.90;91.90
55771;DHT22;41687;-33.234;-60.334;2022-07-06T00:33:03;9.80;92.20
55771;DHT22;41687;-33.234;-60.334;2022-07-06T00:35:31;9.90;92.10
55771;DHT22;41687;-33.234;-60.334;2022-07-06T00:37:59;9.90;91.80
55771;DHT22;41687;-33.234;-60.334;2022-07-06T00:40:27;9.80;91.80
55771;DHT22;41687;-33.234;-60.334;2022-07-06T00:42:57;9.70;92.00
55771;DHT22;41687;-33.234;-60.334;2022-07-06T00:45:25;9.70;92.10
55771;DHT22;41687;-33.234;-60.334;2022-07-06T00:47:53;9.70;91.90
55771;DHT22;41687;-33.234;-60.334;2022-07-06T00:50:21;9.60;92.00
55771;DHT22;41687;-33.234;-60.334;2022-07-06T00:52:59;9.60;92.10
55771;DHT22;41687;-33.234;-60.334;2022-07-06T00:55:31;9.60;92.30
55771;DHT22;41687;-33.234;-60.334;2022-07-06T00:58:01;9.50;92.30
55771;DHT22;41687;-33.234;-60.334;2022-07-06T01:00:31;9.50;92.30
55771;DHT22;41687;-33.234;-60.334;2022-07-06T01:02:59;9.40;92.50
55771;DHT22;41687;-33.234;-60.334;2022-07-06T01:05:26;9.40;92.40
55771;DHT22;41687;-33.234;-60.334;2022-07-06T01:07:54;9.40;92.40
55771;DHT22;41687;-33.234;-60.334;2022-07-06T01:10:23;9.40;92.40
55771;DHT22;41687;-33.234;-60.334;2022-07-06T01:12:51;9.40;92.50
55771;DHT22;41687;-33.234;-60.334;2022-07-06T01:15:23;9.50;92.30
55771;DHT22;41687;-33.234;-60.334;2022-07-06T01:17:53;9.40;92.30
55771;DHT22;41687;-33.234;-60.334;2022-07-06T01:20:27;9.40;92.40
55771;DHT22;41687;-33.234;-60.334;2022-07-06T01:22:59;9.30;92.70
55771;DHT22;41687;-33.234;-60.334;2022-07-06T01:25:27;9.30;92.60
55771;DHT22;41687;-33.234;-60.334;2022-07-06T01:27:55;9.30;93.30
55771;DHT22;41687;-33.234;-60.334;2022-07-06T01:30:24;9.30;93.20
55771;DHT22;41687;-33.234;-60.334;2022-07-06T01:32:52;9.40;93.40
55771;DHT22;41687;-33.234;-60.334;2022-07-06T01:35:20;9.50;93.10
55771;DHT22;41687;-33.234;-60.334;2022-07-06T01:37:47;9.40;92.80
55771;DHT22;41687;-33.234;-60.334;2022-07-06T01:40:16;9.50;92.90
55771;DHT22;41687;-33.234;-60.334;2022-07-06T01:42:43;9.50;92.90
55771;DHT22;41687;-33.234;-60.334;2022-07-06T01:45:11;9.50;93.00
55771;DHT22;41687;-33.234;-60.334;2022-07-06T01:47:39;9.50;93.00
55771;DHT22;41687;-33.234;-60.334;2022-07-06T01:50:08;9.50;93.20
55771;DHT22;41687;-33.234;-60.334;2022-07-06T01:52:43;9.60;93.30
55771;DHT22;41687;-33.234;-60.334;2022-07-06T01:55:11;9.60;93.20
55771;DHT22;41687;-33.234;-60.334;2022-07-06T01:57:39;9.60;93.70
55771;DHT22;41687;-33.234;-60.334;2022-07-06T02:00:10;9.60;93.70
55771;DHT22;41687;-33.234;-60.334;2022-07-06T02:02:46;9.70;94.20
55771;DHT22;41687;-33.234;-60.334;2022-07-06T02:05:14;9.70;93.80
55771;DHT22;41687;-33.234;-60.334;2022-07-06T02:07:43;9.70;94.10
55771;DHT22;41687;-33.234;-60.334;2022-07-06T02:10:12;9.80;94.00
55771;DHT22;41687;-33.234;-60.334;2022-07-06T02:12:40;9.90;94.10
55771;DHT22;41687;-33.234;-60.334;2022-07-06T02:15:10;9.90;93.80
55771;DHT22;41687;-33.234;-60.334;2022-07-06T02:17:39;9.90;94.40
55771;DHT22;41687;-33.234;-60.334;2022-07-06T02:20:08;9.90;94.30
55771;DHT22;41687;-33.234;-60.334;2022-07-06T02:22:36;9.90;94.20
55771;DHT22;41687;-33.234;-60.334;2022-07-06T02:25:04;10.00;94.00
55771;DHT22;41687;-33.234;-60.334;2022-07-06T02:27:32;10.00;93.90
55771;DHT22;41687;-33.234;-60.334;2022-07-06T02:30:05;10.10;93.90
55771;DHT22;41687;-33.234;-60.334;2022-07-06T02:32:34;10.20;93.50
55771;DHT22;41687;-33.234;-60.334;2022-07-06T02:35:03;10.20;93.50
55771;DHT22;41687;-33.234;-60.334;2022-07-06T02:37:31;10.20;93.60
55771;DHT22;41687;-33.234;-60.334;2022-07-06T02:39:58;10.20;93.50
55771;DHT22;41687;-33.234;-60.334;2022-07-06T02:42:26;10.20;93.50
55771;DHT22;41687;-33.234;-60.334;2022-07-06T02:44:55;10.20;93.70
55771;DHT22;41687;-33.234;-60.334;2022-07-06T02:47:23;10.20;93.70
55771;DHT22;41687;-33.234;-60.334;2022-07-06T02:49:53;10.30;93.50
55771;DHT22;41687;-33.234;-60.334;2022-07-06T02:52:23;10.40;93.20
55771;DHT22;41687;-33.234;-60.334;2022-07-06T02:54:50;10.40;93.40
55771;DHT22;41687;-33.234;-60.334;2022-07-06T02:57:19;10.40;93.40
55771;DHT22;41687;-33.234;-60.334;2022-07-06T02:59:48;10.40;93.40
55771;DHT22;41687;-33.234;-60.334;2022-07-06T03:02:17;10.40;93.40
55771;DHT22;41687;-33.234;-60.334;2022-07-06T03:04:46;10.50;93.40
55771;DHT22;41687;-33.234;-60.334;2022-07-06T03:07:15;10.50;93.20
55771;DHT22;41687;-33.234;-60.334;2022-07-06T03:09:44;10.50;93.30
55771;DHT22;41687;-33.234;-60.334;2022-07-06T03:12:13;10.50;93.20
55771;DHT22;41687;-33.234;-60.334;2022-07-06T03:14:41;10.50;93.20
55771;DHT22;41687;-33.234;-60.334;2022-07-06T03:17:09;10.50;93.00
55771;DHT22;41687;-33.234;-60.334;2022-07-06T03:19:37;10.50;93.00
55771;DHT22;41687;-33.234;-60.334;2022-07-06T03:22:05;10.50;93.00
55771;DHT22;41687;-33.234;-60.334;2022-07-06T03:24:33;10.50;93.10
55771;DHT22;41687;-33.234;-60.334;2022-07-06T03:27:01;10.50;92.80
55771;DHT22;41687;-33.234;-60.334;2022-07-06T03:29:28;10.50;93.10
55771;DHT22;41687;-33.234;-60.334;2022-07-06T03:31:56;10.50;93.00
55771;DHT22;41687;-33.234;-60.334;2022-07-06T03:34:26;10.50;92.90
55771;DHT22;41687;-33.234;-60.334;2022-07-06T03:36:53;10.60;92.60
55771;DHT22;41687;-33.234;-60.334;2022-07-06T03:39:22;10.60;92.70
55771;DHT22;41687;-33.234;-60.334;2022-07-06T03:41:51;10.60;92.90
55771;DHT22;41687;-33.234;-60.334;2022-07-06T03:44:20;10.60;92.80
55771;DHT22;41687;-33.234;-60.334;2022-07-06T03:46:48;10.60;92.70
55771;DHT22;41687;-33.234;-60.334;2022-07-06T03:49:18;10.50;92.90
55771;DHT22;41687;-33.234;-60.334;2022-07-06T03:51:46;10.50;93.10
55771;DHT22;41687;-33.234;-60.334;2022-07-06T03:54:14;10.60;93.00
55771;DHT22;41687;-33.234;-60.334;2022-07-06T03:56:43;10.50;93.10
55771;DHT22;41687;-33.234;-60.334;2022-07-06T03:59:14;10.50;93.00
55771;DHT22;41687;-33.234;-60.334;2022-07-06T04:01:43;10.50;93.20
55771;DHT22;41687;-33.234;-60.334;2022-07-06T04:04:13;10.40;93.80
55771;DHT22;41687;-33.234;-60.334;2022-07-06T04:06:44;10.40;93.60
55771;DHT22;41687;-33.234;-60.334;2022-07-06T04:09:12;10.40;93.50
55771;DHT22;41687;-33.234;-60.334;2022-07-06T04:11:41;10.30;93.90
55771;DHT22;41687;-33.234;-60.334;2022-07-06T04:14:09;10.30;93.90
55771;DHT22;41687;-33.234;-60.334;2022-07-06T04:16:37;10.30;93.80
55771;DHT22;41687;-33.234;-60.334;2022-07-06T04:19:06;10.20;94.40
55771;DHT22;41687;-33.234;-60.334;2022-07-06T04:21:35;10.10;94.60
55771;DHT22;41687;-33.234;-60.334;2022-07-06T04:24:03;10.10;94.90
55771;DHT22;41687;-33.234;-60.334;2022-07-06T04:26:32;10.20;94.70
55771;DHT22;41687;-33.234;-60.334;2022-07-06T04:29:02;10.20;94.80
55771;DHT22;41687;-33.234;-60.334;2022-07-06T04:31:30;10.20;94.80
55771;DHT22;41687;-33.234;-60.334;2022-07-06T04:33:59;10.10;95.10
55771;DHT22;41687;-33.234;-60.334;2022-07-06T04:36:27;10.30;94.90
55771;DHT22;41687;-33.234;-60.334;2022-07-06T04:38:55;10.30;94.90
55771;DHT22;41687;-33.234;-60.334;2022-07-06T04:41:24;10.30;94.50
55771;DHT22;41687;-33.234;-60.334;2022-07-06T04:43:52;10.30;95.00
55771;DHT22;41687;-33.234;-60.334;2022-07-06T04:46:21;10.20;95.20
55771;DHT22;41687;-33.234;-60.334;2022-07-06T04:48:52;10.20;95.20
55771;DHT22;41687;-33.234;-60.334;2022-07-06T04:51:25;10.30;95.00
55771;DHT22;41687;-33.234;-60.334;2022-07-06T04:53:53;10.20;95.20
55771;DHT22;41687;-33.234;-60.334;2022-07-06T04:56:22;10.30;95.20
55771;DHT22;41687;-33.234;-60.334;2022-07-06T04:58:50;10.10;95.60
55771;DHT22;41687;-33.234;-60.334;2022-07-06T05:01:20;10.10;95.70
55771;DHT22;41687;-33.234;-60.334;2022-07-06T05:03:49;10.20;95.60
55771;DHT22;41687;-33.234;-60.334;2022-07-06T05:06:21;10.30;95.30
55771;DHT22;41687;-33.234;-60.334;2022-07-06T05:08:50;10.40;95.10
55771;DHT22;41687;-33.234;-60.334;2022-07-06T05:11:18;10.50;94.90
55771;DHT22;41687;-33.234;-60.334;2022-07-06T05:13:47;10.50;94.50
55771;DHT22;41687;-33.234;-60.334;2022-07-06T05:16:17;10.50;94.80
55771;DHT22;41687;-33.234;-60.334;2022-07-06T05:18:45;10.50;94.70
55771;DHT22;41687;-33.234;-60.334;2022-07-06T05:21:13;10.50;94.60
55771;DHT22;41687;-33.234;-60.334;2022-07-06T05:23:41;10.50;94.70
55771;DHT22;41687;-33.234;-60.334;2022-07-06T05:26:09;10.50;94.90
55771;DHT22;41687;-33.234;-60.334;2022-07-06T05:28:37;10.50;94.70
55771;DHT22;41687;-33.234;-60.334;2022-07-06T05:31:08;10.60;94.70
55771;DHT22;41687;-33.234;-60.334;2022-07-06T05:33:36;10.50;94.70
55771;DHT22;41687;-33.234;-60.334;2022-07-06T05:36:04;10.50;94.90
55771;DHT22;41687;-33.234;-60.334;2022-07-06T05:38:32;10.50;94.80
55771;DHT22;41687;-33.234;-60.334;2022-07-06T05:41:00;10.50;95.10
55771;DHT22;41687;-33.234;-60.334;2022-07-06T05:43:28;10.60;94.80
55771;DHT22;41687;-33.234;-60.334;2022-07-06T05:45:58;10.60;94.80
55771;DHT22;41687;-33.234;-60.334;2022-07-06T05:48:29;10.60;94.80
55771;DHT22;41687;-33.234;-60.334;2022-07-06T05:51:16;10.70;94.70
55771;DHT22;41687;-33.234;-60.334;2022-07-06T05:53:45;10.60;94.70
55771;DHT22;41687;-33.234;-60.334;2022-07-06T05:56:14;10.60;94.70
55771;DHT22;41687;-33.234;-60.334;2022-07-06T05:58:43;10.60;94.70
55771;DHT22;41687;-33.234;-60.334;2022-07-06T06:01:11;10.60;94.70
55771;DHT22;41687;-33.234;-60.334;2022-07-06T06:03:44;10.70;94.70
55771;DHT22;41687;-33.234;-60.334;2022-07-06T06:06:13;10.80;94.70
55771;DHT22;41687;-33.234;-60.334;2022-07-06T06:08:41;10.70;94.60
55771;DHT22;41687;-33.234;-60.334;2022-07-06T06:11:09;10.70;94.50
55771;DHT22;41687;-33.234;-60.334;2022-07-06T06:13:36;10.70;94.70
55771;DHT22;41687;-33.234;-60.334;2022-07-06T06:16:05;10.80;94.50
55771;DHT22;41687;-33.234;-60.334;2022-07-06T06:18:33;10.70;94.70
55771;DHT22;41687;-33.234;-60.334;2022-07-06T06:21:01;10.70;94.60
55771;DHT22;41687;-33.234;-60.334;2022-07-06T06:23:28;10.80;94.60
55771;DHT22;41687;-33.234;-60.334;2022-07-06T06:25:56;10.80;94.50
55771;DHT22;41687;-33.234;-60.334;2022-07-06T06:28:24;10.80;94.50
55771;DHT22;41687;-33.234;-60.334;2022-07-06T06:30:52;10.80;94.50
55771;DHT22;41687;-33.234;-60.334;2022-07-06T06:33:20;10.70;94.70
55771;DHT22;41687;-33.234;-60.334;2022-07-06T06:35:50;10.70;94.90
55771;DHT22;41687;-33.234;-60.334;2022-07-06T06:38:19;10.70;95.10
55771;DHT22;41687;-33.234;-60.334;2022-07-06T06:40:48;10.60;95.50
55771;DHT22;41687;-33.234;-60.334;2022-07-06T06:43:16;10.60;95.50
55771;DHT22;41687;-33.234;-60.334;2022-07-06T06:46:10;10.70;95.30
55771;DHT22;41687;-33.234;-60.334;2022-07-06T06:48:38;10.70;95.30
55771;DHT22;41687;-33.234;-60.334;2022-07-06T06:51:05;10.70;95.40
55771;DHT22;41687;-33.234;-60.334;2022-07-06T06:53:33;10.60;95.80
55771;DHT22;41687;-33.234;-60.334;2022-07-06T06:56:00;10.70;95.80
55771;DHT22;41687;-33.234;-60.334;2022-07-06T06:58:29;10.60;95.80
55771;DHT22;41687;-33.234;-60.334;2022-07-06T07:00:56;10.60;95.70
55771;DHT22;41687;-33.234;-60.334;2022-07-06T07:03:24;10.60;96.10
55771;DHT22;41687;-33.234;-60.334;2022-07-06T07:05:52;10.60;96.00
55771;DHT22;41687;-33.234;-60.334;2022-07-06T07:08:20;10.60;96.40
55771;DHT22;41687;-33.234;-60.334;2022-07-06T07:10:47;10.70;96.00
55771;DHT22;41687;-33.234;-60.334;2022-07-06T07:13:15;10.70;96.00
55771;DHT22;41687;-33.234;-60.334;2022-07-06T07:15:44;10.60;96.20
55771;DHT22;41687;-33.234;-60.334;2022-07-06T07:18:11;10.60;96.30
55771;DHT22;41687;-33.234;-60.334;2022-07-06T07:20:39;10.70;96.30
55771;DHT22;41687;-33.234;-60.334;2022-07-06T07:23:07;10.60;96.60
55771;DHT22;41687;-33.234;-60.334;2022-07-06T07:25:34;10.50;96.80
55771;DHT22;41687;-33.234;-60.334;2022-07-06T07:28:01;10.50;96.90
55771;DHT22;41687;-33.234;-60.334;2022-07-06T07:30:29;10.60;96.60
55771;DHT22;41687;-33.234;-60.334;2022-07-06T07:32:57;10.50;96.90
55771;DHT22;41687;-33.234;-60.334;2022-07-06T07:35:28;10.50;96.90
55771;DHT22;41687;-33.234;-60.334;2022-07-06T07:37:55;10.40;97.40
55771;DHT22;41687;-33.234;-60.334;2022-07-06T07:40:23;10.50;97.10
55771;DHT22;41687;-33.234;-60.334;2022-07-06T07:42:51;10.60;97.10
55771;DHT22;41687;-33.234;-60.334;2022-07-06T07:45:19;10.40;97.50
55771;DHT22;41687;-33.234;-60.334;2022-07-06T07:47:46;10.40;97.50
55771;DHT22;41687;-33.234;-60.334;2022-07-06T07:50:14;10.50;97.70
55771;DHT22;41687;-33.234;-60.334;2022-07-06T07:52:42;10.50;98.10
55771;DHT22;41687;-33.234;-60.334;2022-07-06T07:55:10;10.40;98.20
55771;DHT22;41687;-33.234;-60.334;2022-07-06T07:57:38;10.50;97.70
55771;DHT22;41687;-33.234;-60.334;2022-07-06T08:00:07;10.50;97.80
55771;DHT22;41687;-33.234;-60.334;2022-07-06T08:02:38;10.50;98.20
55771;DHT22;41687;-33.234;-60.334;2022-07-06T08:05:07;10.40;98.30
55771;DHT22;41687;-33.234;-60.334;2022-07-06T08:07:35;10.50;98.20
55771;DHT22;41687;-33.234;-60.334;2022-07-06T08:10:03;10.50;98.00
55771;DHT22;41687;-33.234;-60.334;2022-07-06T08:12:30;10.40;98.50
55771;DHT22;41687;-33.234;-60.334;2022-07-06T08:14:59;10.40;98.70
55771;DHT22;41687;-33.234;-60.334;2022-07-06T08:17:27;10.50;98.10
55771;DHT22;41687;-33.234;-60.334;2022-07-06T08:19:54;10.50;98.10
55771;DHT22;41687;-33.234;-60.334;2022-07-06T08:22:21;10.60;98.10
55771;DHT22;41687;-33.234;-60.334;2022-07-06T08:24:50;10.60;98.40
55771;DHT22;41687;-33.234;-60.334;2022-07-06T08:27:18;10.60;98.00
55771;DHT22;41687;-33.234;-60.334;2022-07-06T08:29:45;10.50;98.40
55771;DHT22;41687;-33.234;-60.334;2022-07-06T08:32:13;10.50;98.50
55771;DHT22;41687;-33.234;-60.334;2022-07-06T08:34:41;10.40;98.90
55771;DHT22;41687;-33.234;-60.334;2022-07-06T08:37:11;10.30;99.00
55771;DHT22;41687;-33.234;-60.334;2022-07-06T08:39:38;10.30;99.60
55771;DHT22;41687;-33.234;-60.334;2022-07-06T08:42:06;10.30;99.40
55771;DHT22;41687;-33.234;-60.334;2022-07-06T08:44:37;10.30;99.40
55771;DHT22;41687;-33.234;-60.334;2022-07-06T08:47:06;10.30;99.60
55771;DHT22;41687;-33.234;-60.334;2022-07-06T08:49:38;10.10;99.90
55771;DHT22;41687;-33.234;-60.334;2022-07-06T08:52:08;10.20;99.90
55771;DHT22;41687;-33.234;-60.334;2022-07-06T08:54:35;10.20;99.90
55771;DHT22;41687;-33.234;-60.334;2022-07-06T08:57:05;10.20;99.90
55771;DHT22;41687;-33.234;-60.334;2022-07-06T08:59:33;10.10;99.90
55771;DHT22;41687;-33.234;-60.334;2022-07-06T09:02:03;10.20;99.90
55771;DHT22;41687;-33.234;-60.334;2022-07-06T09:04:33;10.30;99.90
55771;DHT22;41687;-33.234;-60.334;2022-07-06T09:07:03;10.40;99.70
55771;DHT22;41687;-33.234;-60.334;2022-07-06T09:09:31;10.40;99.70
55771;DHT22;41687;-33.234;-60.334;2022-07-06T09:11:59;10.30;99.90
55771;DHT22;41687;-33.234;-60.334;2022-07-06T09:14:28;10.30;99.90
55771;DHT22;41687;-33.234;-60.334;2022-07-06T09:17:04;10.10;99.90
55771;DHT22;41687;-33.234;-60.334;2022-07-06T09:19:33;10.10;99.90
55771;DHT22;41687;-33.234;-60.334;2022-07-06T09:22:02;10.10;99.90
55771;DHT22;41687;-33.234;-60.334;2022-07-06T09:24:31;10.10;99.90
55771;DHT22;41687;-33.234;-60.334;2022-07-06T09:26:59;10.20;99.90
55771;DHT22;41687;-33.234;-60.334;2022-07-06T09:29:29;10.20;99.90
55771;DHT22;41687;-33.234;-60.334;2022-07-06T09:32:02;10.30;99.90
55771;DHT22;41687;-33.234;-60.334;2022-07-06T09:34:45;10.30;99.90
55771;DHT22;41687;-33.234;-60.334;2022-07-06T09:37:14;10.30;99.90
55771;DHT22;41687;-33.234;-60.334;2022-07-06T09:39:43;10.20;99.90
55771;DHT22;41687;-33.234;-60.334;2022-07-06T09:42:12;10.30;99.90
55771;DHT22;41687;-33.234;-60.334;2022-07-06T09:44:41;10.20;99.90
55771;DHT22;41687;-33.234;-60.334;2022-07-06T09:47:11;10.30;99.90
55771;DHT22;41687;-33.234;-60.334;2022-07-06T09:49:40;10.20;99.90
55771;DHT22;41687;-33.234;-60.334;2022-07-06T09:52:09;10.20;99.90
55771;DHT22;41687;-33.234;-60.334;2022-07-06T09:54:38;10.30;99.90
55771;DHT22;41687;-33.234;-60.334;2022-07-06T09:57:06;10.30;99.90
55771;DHT22;41687;-33.234;-60.334;2022-07-06T09:59:35;10.30;99.90
55771;DHT22;41687;-33.234;-60.334;2022-07-06T10:02:04;10.30;99.90
55771;DHT22;41687;-33.234;-60.334;2022-07-06T10:04:32;10.40;99.90
55771;DHT22;41687;-33.234;-60.334;2022-07-06T10:07:00;10.20;99.90
55771;DHT22;41687;-33.234;-60.334;2022-07-06T10:09:29;10.30;99.90
55771;DHT22;41687;-33.234;-60.334;2022-07-06T10:12:01;10.10;99.90
55771;DHT22;41687;-33.234;-60.334;2022-07-06T10:14:32;10.10;99.90
55771;DHT22;41687;-33.234;-60.334;2022-07-06T10:17:02;10.10;99.90
55771;DHT22;41687;-33.234;-60.334;2022-07-06T10:19:34;10.20;99.90
55771;DHT22;41687;-33.234;-60.334;2022-07-06T10:22:03;10.30;99.90
55771;DHT22;41687;-33.234;-60.334;2022-07-06T10:24:32;10.10;99.90
55771;DHT22;41687;-33.234;-60.334;2022-07-06T10:27:08;10.10;99.90
55771;DHT22;41687;-33.234;-60.334;2022-07-06T10:29:37;10.00;99.90
55771;DHT22;41687;-33.234;-60.334;2022-07-06T10:32:05;10.00;99.90
55771;DHT22;41687;-33.234;-60.334;2022-07-06T10:34:34;10.10;99.90
55771;DHT22;41687;-33.234;-60.334;2022-07-06T10:37:03;10.00;99.90
55771;DHT22;41687;-33.234;-60.334;2022-07-06T10:39:38;10.00;99.90
55771;DHT22;41687;-33.234;-60.334;2022-07-06T10:42:44;9.90;99.90
55771;DHT22;41687;-33.234;-60.334;2022-07-06T10:45:14;9.80;99.90
55771;DHT22;41687;-33.234;-60.334;2022-07-06T10:47:42;9.80;99.90
55771;DHT22;41687;-33.234;-60.334;2022-07-06T10:50:11;9.90;99.90
55771;DHT22;41687;-33.234;-60.334;2022-07-06T10:53:25;9.80;99.90
55771;DHT22;41687;-33.234;-60.334;2022-07-06T10:55:55;9.80;99.90
55771;DHT22;41687;-33.234;-60.334;2022-07-06T11:01:10;9.80;99.90
55771;DHT22;41687;-33.234;-60.334;2022-07-06T11:04:05;9.90;99.90
55771;DHT22;41687;-33.234;-60.334;2022-07-06T11:06:38;9.90;99.90
55771;DHT22;41687;-33.234;-60.334;2022-07-06T11:09:10;9.80;99.90
55771;DHT22;41687;-33.234;-60.334;2022-07-06T11:11:41;9.90;99.90
55771;DHT22;41687;-33.234;-60.334;2022-07-06T11:14:17;9.90;99.90
55771;DHT22;41687;-33.234;-60.334;2022-07-06T11:19:21;9.90;99.90
55771;DHT22;41687;-33.234;-60.334;2022-07-06T11:21:55;9.90;99.90
55771;DHT22;41687;-33.234;-60.334;2022-07-06T11:24:26;9.90;99.90
55771;DHT22;41687;-33.234;-60.334;2022-07-06T11:26:56;9.80;99.90
55771;DHT22;41687;-33.234;-60.334;2022-07-06T11:29:25;10.00;99.90
55771;DHT22;41687;-33.234;-60.334;2022-07-06T11:31:58;9.90;99.90
55771;DHT22;41687;-33.234;-60.334;2022-07-06T11:34:28;9.80;99.90
55771;DHT22;41687;-33.234;-60.334;2022-07-06T11:36:58;9.80;99.90
55771;DHT22;41687;-33.234;-60.334;2022-07-06T11:39:34;9.80;99.90
55771;DHT22;41687;-33.234;-60.334;2022-07-06T11:42:03;9.90;99.90
55771;DHT22;41687;-33.234;-60.334;2022-07-06T11:44:31;9.80;99.90
55771;DHT22;41687;-33.234;-60.334;2022-07-06T11:46:59;9.90;99.90
55771;DHT22;41687;-33.234;-60.334;2022-07-06T11:49:35;9.80;99.90
55771;DHT22;41687;-33.234;-60.334;2022-07-06T11:52:13;9.60;99.90
55771;DHT22;41687;-33.234;-60.334;2022-07-06T11:54:41;9.60;99.90
55771;DHT22;41687;-33.234;-60.334;2022-07-06T11:57:11;9.60;99.90
55771;DHT22;41687;-33.234;-60.334;2022-07-06T11:59:41;9.50;99.90
55771;DHT22;41687;-33.234;-60.334;2022-07-06T12:02:15;9.50;99.90
55771;DHT22;41687;-33.234;-60.334;2022-07-06T12:04:46;9.40;99.90
55771;DHT22;41687;-33.234;-60.334;2022-07-06T12:07:17;9.40;99.90
55771;DHT22;41687;-33.234;-60.334;2022-07-06T12:09:47;9.50;99.90
55771;DHT22;41687;-33.234;-60.334;2022-07-06T12:12:15;9.50;99.90
55771;DHT22;41687;-33.234;-60.334;2022-07-06T12:14:44;9.50;99.90
55771;DHT22;41687;-33.234;-60.334;2022-07-06T12:17:15;9.60;99.90
55771;DHT22;41687;-33.234;-60.334;2022-07-06T12:19:44;9.50;99.90
55771;DHT22;41687;-33.234;-60.334;2022-07-06T12:22:12;9.70;99.90
55771;DHT22;41687;-33.234;-60.334;2022-07-06T12:24:44;9.80;99.90
55771;DHT22;41687;-33.234;-60.334;2022-07-06T12:27:19;9.80;99.90
55771;DHT22;41687;-33.234;-60.334;2022-07-06T12:29:48;9.90;99.90
55771;DHT22;41687;-33.234;-60.334;2022-07-06T12:32:18;9.80;99.90
55771;DHT22;41687;-33.234;-60.334;2022-07-06T12:34:46;9.70;99.90
55771;DHT22;41687;-33.234;-60.334;2022-07-06T12:37:14;9.70;99.90
55771;DHT22;41687;-33.234;-60.334;2022-07-06T12:39:48;9.70;99.90
55771;DHT22;41687;-33.234;-60.334;2022-07-06T12:42:18;9.70;99.90
55771;DHT22;41687;-33.234;-60.334;2022-07-06T12:44:49;9.90;99.90
55771;DHT22;41687;-33.234;-60.334;2022-07-06T12:47:22;9.70;99.90
55771;DHT22;41687;-33.234;-60.334;2022-07-06T12:50:08;9.60;99.90
55771;DHT22;41687;-33.234;-60.334;2022-07-06T12:52:37;9.60;99.90
55771;DHT22;41687;-33.234;-60.334;2022-07-06T12:55:08;9.70;99.90
55771;DHT22;41687;-33.234;-60.334;2022-07-06T12:57:44;9.90;99.90
55771;DHT22;41687;-33.234;-60.334;2022-07-06T13:00:13;9.80;99.90
55771;DHT22;41687;-33.234;-60.334;2022-07-06T13:02:45;9.70;99.90
55771;DHT22;41687;-33.234;-60.334;2022-07-06T13:05:15;9.80;99.90
55771;DHT22;41687;-33.234;-60.334;2022-07-06T13:07:47;9.80;99.90
55771;DHT22;41687;-33.234;-60.334;2022-07-06T13:10:16;9.80;99.90
55771;DHT22;41687;-33.234;-60.334;2022-07-06T13:12:44;10.00;99.90
55771;DHT22;41687;-33.234;-60.334;2022-07-06T13:15:12;9.80;99.90
55771;DHT22;41687;-33.234;-60.334;2022-07-06T13:17:40;9.90;99.90
55771;DHT22;41687;-33.234;-60.334;2022-07-06T13:20:11;10.00;99.90
55771;DHT22;41687;-33.234;-60.334;2022-07-06T13:22:40;9.90;99.90
55771;DHT22;41687;-33.234;-60.334;2022-07-06T13:25:08;10.00;99.90
55771;DHT22;41687;-33.234;-60.334;2022-07-06T13:27:36;10.00;99.90
55771;DHT22;41687;-33.234;-60.334;2022-07-06T13:30:04;10.00;99.90
55771;DHT22;41687;-33.234;-60.334;2022-07-06T13:32:33;10.00;99.90
55771;DHT22;41687;-33.234;-60.334;2022-07-06T13:35:00;10.00;99.90
55771;DHT22;41687;-33.234;-60.334;2022-07-06T13:37:28;10.00;99.90
55771;DHT22;41687;-33.234;-60.334;2022-07-06T13:39:56;10.10;99.90
55771;DHT22;41687;-33.234;-60.334;2022-07-06T13:42:24;10.10;99.90
55771;DHT22;41687;-33.234;-60.334;2022-07-06T13:44:51;10.00;99.90
55771;DHT22;41687;-33.234;-60.334;2022-07-06T13:47:20;10.20;99.90
55771;DHT22;41687;-33.234;-60.334;2022-07-06T13:49:47;10.20;99.90
55771;DHT22;41687;-33.234;-60.334;2022-07-06T13:52:17;10.00;99.90
55771;DHT22;41687;-33.234;-60.334;2022-07-06T13:54:45;10.10;99.90
55771;DHT22;41687;-33.234;-60.334;2022-07-06T13:57:12;10.10;99.90
55771;DHT22;41687;-33.234;-60.334;2022-07-06T13:59:40;10.00;99.90
55771;DHT22;41687;-33.234;-60.334;2022-07-06T14:02:10;9.90;99.90
55771;DHT22;41687;-33.234;-60.334;2022-07-06T14:04:37;10.00;99.90
55771;DHT22;41687;-33.234;-60.334;2022-07-06T14:07:06;10.00;99.90
55771;DHT22;41687;-33.234;-60.334;2022-07-06T14:09:34;10.00;99.90
55771;DHT22;41687;-33.234;-60.334;2022-07-06T14:12:02;10.00;99.90
55771;DHT22;41687;-33.234;-60.334;2022-07-06T14:14:30;10.10;99.90
55771;DHT22;41687;-33.234;-60.334;2022-07-06T14:16:58;10.00;99.90
55771;DHT22;41687;-33.234;-60.334;2022-07-06T14:19:25;10.10;99.90
55771;DHT22;41687;-33.234;-60.334;2022-07-06T14:21:53;10.10;99.90
55771;DHT22;41687;-33.234;-60.334;2022-07-06T14:24:21;10.10;99.90
55771;DHT22;41687;-33.234;-60.334;2022-07-06T14:26:49;10.10;99.90
55771;DHT22;41687;-33.234;-60.334;2022-07-06T14:29:16;10.20;99.90
55771;DHT22;41687;-33.234;-60.334;2022-07-06T14:31:45;10.30;99.90
55771;DHT22;41687;-33.234;-60.334;2022-07-06T14:34:14;10.30;99.90
55771;DHT22;41687;-33.234;-60.334;2022-07-06T14:36:42;10.30;99.90
55771;DHT22;41687;-33.234;-60.334;2022-07-06T14:39:09;10.40;99.90
55771;DHT22;41687;-33.234;-60.334;2022-07-06T14:41:39;10.50;99.90
55771;DHT22;41687;-33.234;-60.334;2022-07-06T14:44:07;10.40;99.90
55771;DHT22;41687;-33.234;-60.334;2022-07-06T14:46:34;10.40;99.90
55771;DHT22;41687;-33.234;-60.334;2022-07-06T14:49:02;10.40;99.90
55771;DHT22;41687;-33.234;-60.334;2022-07-06T14:51:30;10.50;99.90
55771;DHT22;41687;-33.234;-60.334;2022-07-06T14:53:57;10.50;99.90
55771;DHT22;41687;-33.234;-60.334;2022-07-06T14:56:25;10.60;99.90
55771;DHT22;41687;-33.234;-60.334;2022-07-06T14:58:53;10.60;99.90
55771;DHT22;41687;-33.234;-60.334;2022-07-06T15:01:21;10.70;99.90
55771;DHT22;41687;-33.234;-60.334;2022-07-06T15:03:49;10.60;99.90
55771;DHT22;41687;-33.234;-60.334;2022-07-06T15:06:17;10.60;99.90
55771;DHT22;41687;-33.234;-60.334;2022-07-06T15:08:45;10.70;99.90
55771;DHT22;41687;-33.234;-60.334;2022-07-06T15:11:14;10.90;99.90